»·PEaware :: ASA1945 KSNA-KPHX

ASA1945 :: KSNA-KPHX

FLIGHT INFORMATION

Flight Status: Arrived
Operator:
Alaska Airlines
More flights by this operator :: More flights under this callsign
Pilot: Sean T. (30125)
Aircraft: AIRBUS A319
(A319)
More flights by this aircraft type
Origin: KSNA John Wayne-Orange Co
United States
Destination: KPHX Phoenix Sky Harbor Intl
United States
More flights between these airports :: More routes between these airports
Route: PIGGN2 CNERY BLH HYDRR1
File this flight plan on PilotEdge
Remarks:
Altitude:
(Current/Filed)
29,000ft
Speed:
(Current/Filed)
510kts
Departed: 02-Jan-22 04:00 PM
Arrived: 02-Jan-22 04:52 PM
Distance/Time
Traveled:
294nm/0:51
Distance/Time
To Go:
Arrived

Flight Plot

Page will automatically refresh every two minutes.

Flight plan parsing failed; only flown route is shown


Map Options




Map Legend


Flown Route
Filed Route
Departure Airport
Arrival Airport
Navaid (VOR, NDB)
Fix

Horizontal Profiles

Position Reports

Time Latitude Longitude Heading Altitude Ground
Speed
02-Jan-22 15:42 33.677545 -117.863458 117 64ft 0kts
02-Jan-22 15:43 33.677545 -117.863458 117 64ft 0kts
02-Jan-22 15:44 33.677545 -117.863458 117 64ft 0kts
02-Jan-22 15:44 33.677545 -117.863458 117 64ft 0kts
02-Jan-22 15:45 33.677545 -117.863458 117 64ft 0kts
02-Jan-22 15:46 33.677545 -117.863458 117 65ft 0kts
02-Jan-22 15:47 33.677545 -117.863458 117 65ft 0kts
02-Jan-22 15:48 33.677545 -117.863458 117 65ft 0kts
02-Jan-22 15:49 33.677546 -117.863459 117 65ft 0kts
02-Jan-22 15:50 33.677546 -117.863459 117 65ft 0kts
02-Jan-22 15:51 33.677746 -117.864007 81 65ft 2kts
02-Jan-22 15:52 33.677554 -117.864293 27 65ft 0kts
02-Jan-22 15:53 33.677555 -117.864293 27 65ft 0kts
02-Jan-22 15:54 33.677555 -117.864293 27 65ft 0kts
02-Jan-22 15:55 33.678564 -117.863652 27 65ft 9kts
02-Jan-22 15:56 33.680623 -117.863016 299 64ft 0kts
02-Jan-22 15:57 33.681052 -117.863938 298 64ft 10kts
02-Jan-22 15:58 33.681234 -117.865334 210 65ft 21kts
02-Jan-22 15:59 33.647365 -117.885688 204 2162ft 171kts
02-Jan-22 16:00 33.596953 -117.894921 184 4738ft 221kts
02-Jan-22 16:01 33.527629 -117.874229 147 7063ft 282kts
02-Jan-22 16:02 33.482859 -117.796604 112 10525ft 302kts
02-Jan-22 16:03 33.484689 -117.693384 70 13760ft 327kts
02-Jan-22 16:04 33.528884 -117.597338 59 16968ft 333kts
02-Jan-22 16:05 33.574661 -117.497800 73 19401ft 351kts
02-Jan-22 16:06 33.553102 -117.385633 114 21842ft 353kts
02-Jan-22 16:07 33.517826 -117.274680 113 24076ft 360kts
02-Jan-22 16:08 33.502753 -117.154667 93 26087ft 372kts
02-Jan-22 16:09 33.500710 -117.031323 93 28090ft 369kts
02-Jan-22 16:10 33.498068 -116.907567 93 29241ft 388kts
02-Jan-22 16:11 33.496445 -116.768887 92 29267ft 440kts
02-Jan-22 16:12 33.494613 -116.615545 92 29335ft 483kts
02-Jan-22 16:13 33.492446 -116.450001 91 29362ft 500kts
02-Jan-22 16:14 33.490078 -116.283372 92 29360ft 500kts
02-Jan-22 16:15 33.487430 -116.117216 92 29360ft 500kts
02-Jan-22 16:16 33.508698 -115.953261 71 29362ft 499kts
02-Jan-22 16:17 33.555052 -115.797537 70 29360ft 498kts
02-Jan-22 16:18 33.600589 -115.640650 72 29359ft 498kts
02-Jan-22 16:19 33.615984 -115.475834 92 29360ft 500kts
02-Jan-22 16:20 33.610988 -115.309136 93 29359ft 500kts
02-Jan-22 16:21 33.606596 -115.142864 93 29360ft 500kts
02-Jan-22 16:22 33.602058 -114.976239 92 29356ft 501kts
02-Jan-22 16:23 33.597013 -114.808997 94 29351ft 501kts
02-Jan-22 16:24 33.573824 -114.645491 104 29351ft 499kts
02-Jan-22 16:25 33.541843 -114.483415 104 29351ft 499kts
02-Jan-22 16:26 33.509778 -114.320152 105 28686ft 500kts
02-Jan-22 16:27 33.480121 -114.169467 105 26260ft 432kts
02-Jan-22 16:28 33.452627 -114.031488 105 25353ft 425kts
02-Jan-22 16:29 33.424908 -113.893750 105 25352ft 425kts
02-Jan-22 16:30 33.397286 -113.756461 105 25352ft 425kts
02-Jan-22 16:31 33.369694 -113.620262 105 23344ft 412kts
02-Jan-22 16:32 33.343115 -113.489939 104 21281ft 397kts
02-Jan-22 16:33 33.320260 -113.362987 102 19685ft 387kts
02-Jan-22 16:34 33.299151 -113.240683 103 18080ft 365kts
02-Jan-22 16:35 33.282167 -113.124661 100 16477ft 347kts
02-Jan-22 16:36 33.275445 -113.012335 88 14872ft 324kts
02-Jan-22 16:37 33.278358 -112.906600 89 13266ft 313kts
02-Jan-22 16:38 33.286330 -112.804983 69 11662ft 305kts
02-Jan-22 16:39 33.319730 -112.716363 65 10248ft 279kts
02-Jan-22 16:40 33.351361 -112.633249 64 9470ft 268kts
02-Jan-22 16:41 33.381220 -112.554935 64 8464ft 246kts
02-Jan-22 16:42 33.408844 -112.481232 65 7846ft 242kts
02-Jan-22 16:43 33.428874 -112.406187 87 6754ft 236kts
02-Jan-22 16:44 33.428572 -112.328286 87 5882ft 234kts
02-Jan-22 16:45 33.433472 -112.254838 79 4949ft 216kts
02-Jan-22 16:46 33.440763 -112.187628 89 3742ft 188kts
02-Jan-22 16:47 33.440854 -112.134866 89 2846ft 129kts
02-Jan-22 16:48 33.440808 -112.093881 89 2223ft 122kts
02-Jan-22 16:49 33.440825 -112.053138 88 1596ft 122kts
02-Jan-22 16:50 33.440840 -112.015130 90 1140ft 68kts
02-Jan-22 16:51 33.439964 -112.010895 167 1140ft 1kts
02-Jan-22 16:52 33.439720 -112.007450 89 1140ft 14kts
02-Jan-22 16:53 33.439714 -112.003059 89 1140ft 15kts
02-Jan-22 16:54 33.438200 -112.000756 179 1140ft 12kts
02-Jan-22 16:55 33.437469 -112.001353 270 1140ft 0kts

Navigation Log

Ident Type
Flight plan parsing failed, navigation log unavailable